Time;durP1;ratioP1;P1;durP2;ratioP2;P2;SDS_P1;SDS_P2;PMS_P1;PMS_P2;Temp;Humidity;BMP_temperature;BMP_pressure;BME280_temperature;BME280_humidity;BME280_pressure;Samples;Min_cycle;Max_cycle;Signal;HPM_P1;HPM_P2
2022/08/22 00:01:06;;;;;;;38.98;5.26;;;;;;;22.97;38.76;100585.86;456660;115;922622;-76
2022/08/22 00:02:19;;;;;;;29.84;4.47;;;;;;;22.97;38.72;100585.86;456679;115;922600;-76
2022/08/22 00:03:34;;;;;;;22.86;4.48;;;;;;;22.96;38.74;100578.63;457252;116;922610;-76
2022/08/22 00:04:47;;;;;;;25.03;5.14;;;;;;;22.96;38.70;100575.86;456841;115;922677;-76
2022/08/22 00:06:00;;;;;;;31.58;4.61;;;;;;;22.96;38.71;100581.42;460810;115;923238;-76
2022/08/22 00:07:29;;;;;;;25.88;4.96;;;;;;;22.96;38.69;100575.86;461578;115;922611;-76
2022/08/22 00:09:06;;;;;;;38.54;5.37;;;;;;;22.96;38.72;100573.08;461583;115;922626;-76
2022/08/22 00:10:16;;;;;;;23.23;3.99;;;;;;;22.96;38.70;100581.42;452389;116;922750;-76
2022/08/22 00:11:36;;;;;;;28.21;5.56;;;;;;;22.95;38.71;100576.97;451524;117;922822;-76
2022/08/22 00:12:58;;;;;;;26.39;4.51;;;;;;;22.94;38.67;100580.88;457121;115;923266;-77
2022/08/22 00:14:16;;;;;;;34.58;4.93;;;;;;;22.93;38.71;100577.30;448779;118;922862;-76
2022/08/22 00:15:28;;;;;;;37.89;5.69;;;;;;;22.93;38.68;100571.73;455538;115;923167;-76
2022/08/22 00:16:43;;;;;;;26.87;5.34;;;;;;;22.93;38.67;100571.73;451065;117;923336;-76
2022/08/22 00:18:09;;;;;;;23.87;4.42;;;;;;;22.93;38.65;100568.13;457212;115;922621;-76
2022/08/22 00:19:24;;;;;;;28.97;5.20;;;;;;;22.94;38.66;100576.14;457253;116;922813;-76
2022/08/22 00:20:34;;;;;;;28.61;4.66;;;;;;;22.94;38.66;100578.09;445910;119;923166;-75
2022/08/22 00:21:50;;;;;;;23.73;4.23;;;;;;;22.93;38.70;100574.52;455656;115;922601;-75
2022/08/22 00:23:11;;;;;;;22.34;5.05;;;;;;;22.92;38.67;100575.63;456912;115;923605;-76
2022/08/22 00:24:27;;;;;;;18.50;4.18;;;;;;;22.93;38.63;100576.46;456945;114;923221;-74
2022/08/22 00:25:40;;;;;;;35.87;4.69;;;;;;;22.92;38.59;100574.80;457213;115;922716;-75
2022/08/22 00:26:47;;;;;;;16.58;4.49;;;;;;;22.92;38.60;100572.02;456766;115;922932;-76
2022/08/22 00:28:14;;;;;;;23.36;4.36;;;;;;;22.92;38.64;100580.36;457322;115;922838;-77
2022/08/22 00:29:20;;;;;;;26.98;4.71;;;;;;;22.91;38.56;100579.53;457258;114;922888;-76
2022/08/22 00:30:25;;;;;;;20.89;3.98;;;;;;;22.91;38.57;100590.66;460170;115;922503;-76
2022/08/22 00:31:32;;;;;;;32.15;5.05;;;;;;;22.91;38.56;100587.88;456680;116;922619;-76
2022/08/22 00:32:48;;;;;;;31.93;4.27;;;;;;;22.90;38.56;100579.82;457282;116;923379;-76
2022/08/22 00:34:11;;;;;;;23.96;4.21;;;;;;;22.91;38.55;100579.53;454714;114;922578;-76
2022/08/22 00:35:17;;;;;;;23.47;4.36;;;;;;;22.91;38.51;100581.48;440325;119;922758;-76
2022/08/22 00:36:49;;;;;;;26.34;4.97;;;;;;;22.91;38.52;100584.27;448634;117;922992;-76
2022/08/22 00:38:11;;;;;;;24.53;4.70;;;;;;;22.91;38.51;100582.31;449446;118;922562;-78
2022/08/22 00:39:39;;;;;;;26.33;4.49;;;;;;;22.89;38.52;100584.55;449207;116;923165;-76
2022/08/22 00:40:58;;;;;;;24.84;4.64;;;;;;;22.88;38.51;100579.31;449232;117;922900;-77
2022/08/22 00:42:13;;;;;;;35.12;5.39;;;;;;;22.86;38.53;100577.65;439742;120;922816;-75
2022/08/22 00:43:40;;;;;;;27.46;4.99;;;;;;;22.84;38.51;100579.88;442563;118;922776;-76
2022/08/22 00:44:50;;;;;;;19.86;5.19;;;;;;;22.84;38.60;100574.32;449372;118;922593;-76
2022/08/22 00:46:13;;;;;;;24.98;5.31;;;;;;;22.82;38.57;100579.34;447602;118;923111;-76
2022/08/22 00:47:28;;;;;;;24.23;4.16;;;;;;;22.82;38.58;100575.77;448627;117;922822;-76
2022/08/22 00:48:44;;;;;;;29.04;4.56;;;;;;;22.80;38.64;100578.83;449303;118;922580;-76
2022/08/22 00:50:10;;;;;;;27.26;4.72;;;;;;;22.80;38.65;100583.56;449271;118;922579;-76
2022/08/22 00:51:17;;;;;;;22.18;4.09;;;;;;;22.79;38.64;100588.28;449354;118;922540;-77
2022/08/22 00:52:38;;;;;;;29.17;4.50;;;;;;;22.79;38.75;100590.23;448203;117;922555;-76
2022/08/22 00:54:09;;;;;;;29.89;5.55;;;;;;;22.79;38.72;100587.45;448282;117;922878;-77
2022/08/22 00:55:32;;;;;;;28.26;5.49;;;;;;;22.78;38.75;100583.84;448193;117;922546;-77
2022/08/22 00:57:06;;;;;;;26.17;4.78;;;;;;;22.77;38.83;100587.74;443079;118;922797;-76
2022/08/22 00:58:29;;;;;;;17.79;4.68;;;;;;;22.76;38.88;100599.18;449315;118;922589;-76
2022/08/22 01:00:08;;;;;;;27.46;4.82;;;;;;;22.74;38.94;100599.47;449268;116;922571;-76
2022/08/22 01:01:11;;;;;;;22.52;4.68;;;;;;;22.72;39.00;100610.04;447061;116;922885;-76
2022/08/22 01:02:23;;;;;;;19.52;4.81;;;;;;;22.71;39.04;100597.29;447368;118;923139;-77
2022/08/22 01:03:42;;;;;;;31.02;4.66;;;;;;;22.71;39.12;100605.63;447357;118;922623;-76
2022/08/22 01:04:49;;;;;;;18.92;4.02;;;;;;;22.71;39.16;100604.77;446012;118;922751;-77
2022/08/22 01:06:17;;;;;;;20.46;4.49;;;;;;;22.70;39.22;100608.66;460987;115;922618;-76
2022/08/22 01:07:36;;;;;;;32.03;5.34;;;;;;;22.70;39.25;100605.88;452209;117;923020;-77
2022/08/22 01:09:19;;;;;;;27.29;4.41;;;;;;;22.69;39.28;100609.78;451669;117;923207;-76
2022/08/22 01:10:42;;;;;;;23.41;4.18;;;;;;;22.67;39.29;100610.06;460698;115;923085;-78
2022/08/22 01:12:00;;;;;;;27.61;4.86;;;;;;;22.66;39.27;100611.18;461428;115;923133;-77
2022/08/22 01:13:13;;;;;;;22.21;4.97;;;;;;;22.64;39.28;100610.67;461387;114;923098;-77
2022/08/22 01:14:43;;;;;;;25.84;4.94;;;;;;;22.62;39.37;100607.34;461485;115;923178;-77
2022/08/22 01:15:49;;;;;;;24.49;5.02;;;;;;;22.62;39.29;100610.13;454715;115;923075;-76
2022/08/22 01:17:18;;;;;;;21.12;4.53;;;;;;;22.61;39.23;100613.19;453585;117;922580;-78
2022/08/22 01:18:37;;;;;;;25.88;4.98;;;;;;;22.59;39.16;100607.11;453609;117;922651;-74
2022/08/22 01:20:04;;;;;;;21.92;4.71;;;;;;;22.58;39.14;100600.72;453532;117;922590;-76
2022/08/22 01:21:27;;;;;;;26.02;4.56;;;;;;;22.56;39.16;100613.24;453591;117;922869;-76
2022/08/22 01:22:55;;;;;;;31.18;4.78;;;;;;;22.56;39.08;100611.30;453507;117;922561;-77
2022/08/22 01:24:17;;;;;;;32.36;4.91;;;;;;;22.55;39.08;100608.83;453195;117;922530;-77
2022/08/22 01:25:31;;;;;;;23.46;4.75;;;;;;;22.53;39.00;100606.34;453584;117;923370;-76
2022/08/22 01:26:53;;;;;;;30.61;5.44;;;;;;;22.52;39.06;100609.40;453601;117;922587;-77
2022/08/22 01:28:30;;;;;;;30.08;5.56;;;;;;;22.50;38.94;100611.63;453615;117;922666;-76
2022/08/22 01:30:02;;;;;;;27.39;4.70;;;;;;;22.50;38.85;100609.69;454205;115;923775;-77
2022/08/22 01:31:32;;;;;;;26.15;4.20;;;;;;;22.50;38.92;100612.47;456886;115;923043;-76
2022/08/22 01:33:02;;;;;;;31.83;5.25;;;;;;;22.59;38.85;100610.73;482455;110;946922;-73
2022/08/22 01:34:27;;;;;;;28.46;5.39;;;;;;;22.48;38.82;100608.34;468274;112;922567;-75
2022/08/22 01:35:53;;;;;;;18.35;4.96;;;;;;;22.46;38.76;100609.45;461825;114;923004;-76
2022/08/22 01:37:08;;;;;;;22.98;4.78;;;;;;;22.48;38.77;100613.89;462108;114;922568;-76
2022/08/22 01:38:16;;;;;;;26.46;5.06;;;;;;;22.47;38.81;100613.06;461220;114;922583;-76
2022/08/22 01:39:41;;;;;;;28.21;4.87;;;;;;;22.46;38.78;100605.84;461031;114;922624;-76
2022/08/22 01:40:54;;;;;;;29.71;5.08;;;;;;;22.46;38.77;100609.45;461254;114;922693;-76
2022/08/22 01:42:21;;;;;;;21.10;4.81;;;;;;;22.46;38.78;100617.79;461391;114;924125;-76
2022/08/22 01:43:53;;;;;;;17.71;5.04;;;;;;;22.47;38.80;100615.84;462071;114;923513;-76
2022/08/22 01:45:11;;;;;;;34.32;4.98;;;;;;;22.47;38.81;100613.06;461412;114;922984;-76
2022/08/22 01:46:33;;;;;;;20.93;4.56;;;;;;;22.46;38.84;100612.23;462062;114;922450;-76
2022/08/22 01:47:46;;;;;;;24.37;5.38;;;;;;;22.46;38.85;100617.79;462070;114;922715;-76
2022/08/22 01:48:55;;;;;;;31.42;5.52;;;;;;;22.46;38.78;100619.73;462060;114;922996;-77
2022/08/22 01:50:14;;;;;;;25.72;5.18;;;;;;;22.48;38.79;100622.23;462087;114;922969;-76
2022/08/22 01:51:33;;;;;;;29.04;5.43;;;;;;;22.48;38.84;100630.57;446005;119;922774;-76
2022/08/22 01:52:50;;;;;;;30.49;5.37;;;;;;;22.59;38.84;100624.62;482385;110;946939;-76
2022/08/22 01:54:03;;;;;;;24.88;5.13;;;;;;;22.49;38.86;100630.28;472302;112;922558;-77
2022/08/22 01:55:22;;;;;;;24.87;4.94;;;;;;;22.48;38.92;100628.62;465237;114;922635;-77
2022/08/22 01:56:29;;;;;;;17.92;4.81;;;;;;;22.49;38.92;100629.45;465184;114;922583;-77
2022/08/22 01:57:36;;;;;;;20.14;4.82;;;;;;;22.49;39.00;100626.67;457203;114;922559;-74
2022/08/22 01:58:58;;;;;;;29.21;5.22;;;;;;;22.51;39.03;100635.53;452003;116;923127;-76
2022/08/22 02:00:08;;;;;;;23.13;5.23;;;;;;;22.51;39.07;100633.58;457084;116;922665;-76
2022/08/22 02:01:26;;;;;;;23.23;4.70;;;;;;;22.51;39.07;100636.36;456238;116;923097;-74
2022/08/22 02:02:35;;;;;;;25.43;5.14;;;;;;;22.51;39.08;100635.53;456760;116;930365;-76
2022/08/22 02:03:59;;;;;;;26.48;5.25;;;;;;;22.51;39.11;100636.36;456880;116;922924;-76
2022/08/22 02:05:06;;;;;;;25.74;5.03;;;;;;;22.52;39.18;100642.75;457156;116;923062;-76
2022/08/22 02:06:19;;;;;;;18.47;4.39;;;;;;;22.51;39.23;100647.47;456848;116;922521;-76
2022/08/22 02:07:45;;;;;;;29.33;5.13;;;;;;;22.51;39.26;100644.70;456537;116;922886;-76
2022/08/22 02:08:52;;;;;;;21.15;4.79;;;;;;;22.50;39.28;100640.25;456856;116;922617;-76
2022/08/22 02:10:13;;;;;;;26.02;5.77;;;;;;;22.50;39.27;100644.98;450725;116;922879;-76
2022/08/22 02:11:55;;;;;;;18.74;4.87;;;;;;;22.50;39.28;100644.98;456900;116;922620;-77
2022/08/22 02:13:05;;;;;;;26.54;5.28;;;;;;;22.49;39.34;100641.40;456031;116;922435;-76
2022/08/22 02:14:31;;;;;;;22.38;4.64;;;;;;;22.48;39.43;100642.52;456232;116;923231;-76
2022/08/22 02:15:41;;;;;;;27.92;6.11;;;;;;;22.46;39.53;100637.24;462446;114;922764;-77
2022/08/22 02:16:50;;;;;;;29.31;4.91;;;;;;;22.45;39.52;100643.91;465343;114;922551;-76
2022/08/22 02:18:05;;;;;;;19.24;4.25;;;;;;;22.45;39.55;100643.08;465240;114;922575;-76
2022/08/22 02:19:18;;;;;;;18.35;4.72;;;;;;;22.44;39.61;100641.42;465352;114;923485;-76
2022/08/22 02:20:28;;;;;;;25.34;4.59;;;;;;;22.42;39.65;100641.73;465346;114;922674;-76
2022/08/22 02:21:38;;;;;;;25.25;5.15;;;;;;;22.41;39.68;100645.62;465642;114;922699;-76
2022/08/22 02:22:54;;;;;;;16.73;4.54;;;;;;;22.42;39.68;100652.84;461026;114;922643;-76
2022/08/22 02:24:03;;;;;;;18.99;4.68;;;;;;;22.40;39.71;100643.96;465367;114;922546;-76
2022/08/22 02:25:16;;;;;;;18.31;4.08;;;;;;;22.41;39.81;100655.91;463369;114;922511;-76
2022/08/22 02:26:26;;;;;;;33.83;5.29;;;;;;;22.39;39.77;100653.41;465292;114;922566;-76
2022/08/22 02:27:58;;;;;;;28.40;5.06;;;;;;;22.38;39.77;100654.52;445672;119;923147;-77
2022/08/22 02:29:17;;;;;;;23.73;5.19;;;;;;;22.37;39.81;100658.45;465349;114;922892;-76
2022/08/22 02:30:24;;;;;;;17.74;4.78;;;;;;;22.36;39.92;100655.95;456975;114;922704;-76
2022/08/22 02:31:40;;;;;;;23.36;5.27;;;;;;;22.35;39.99;100657.06;458672;114;922758;-76
2022/08/22 02:32:46;;;;;;;16.92;4.55;;;;;;;22.35;40.02;100662.62;463998;114;922551;-77
2022/08/22 02:33:53;;;;;;;18.73;4.56;;;;;;;22.34;40.08;100663.73;462187;113;922543;-74
2022/08/22 02:35:13;;;;;;;22.17;4.86;;;;;;;22.33;40.13;100662.08;457309;116;923020;-75
2022/08/22 02:36:43;;;;;;;19.08;4.60;;;;;;;22.33;40.20;100660.13;457298;116;922691;-76
2022/08/22 02:37:59;;;;;;;28.33;5.31;;;;;;;22.32;40.25;100655.72;457052;116;923136;-76
2022/08/22 02:39:09;;;;;;;19.53;5.10;;;;;;;22.32;40.33;100664.05;437916;120;930572;-76
2022/08/22 02:40:22;;;;;;;16.71;3.94;;;;;;;22.30;40.33;100657.11;437633;121;922925;-77
2022/08/22 02:41:49;;;;;;;20.02;4.55;;;;;;;22.29;40.41;100661.84;456394;116;930558;-75
2022/08/22 02:43:14;;;;;;;22.30;3.98;;;;;;;22.28;40.48;100653.78;432773;116;922781;-76
2022/08/22 02:44:36;;;;;;;23.31;4.01;;;;;;;22.27;40.45;100655.77;457318;116;923505;-76
2022/08/22 02:45:52;;;;;;;28.82;5.06;;;;;;;22.24;40.52;100650.77;457272;116;922516;-76
2022/08/22 02:47:07;;;;;;;18.87;3.83;;;;;;;22.23;40.55;100656.61;456808;116;922801;-76
2022/08/22 02:48:32;;;;;;;24.05;4.99;;;;;;;22.22;40.56;100654.98;457317;116;922598;-75
2022/08/22 02:49:51;;;;;;;16.82;4.12;;;;;;;22.21;40.63;100658.87;457232;115;923176;-76
2022/08/22 02:51:04;;;;;;;22.84;3.94;;;;;;;22.20;40.70;100660.81;457293;116;923033;-76
2022/08/22 02:52:13;;;;;;;18.31;4.04;;;;;;;22.19;40.76;100656.38;456623;116;922620;-75
2022/08/22 02:53:29;;;;;;;18.67;3.92;;;;;;;22.19;40.77;100658.31;458089;114;922666;-75
2022/08/22 02:54:55;;;;;;;21.18;4.73;;;;;;;22.18;40.83;100654.70;462550;114;922561;-75
2022/08/22 02:56:05;;;;;;;20.94;4.78;;;;;;;22.17;40.84;100654.98;462604;114;922681;-75
2022/08/22 02:57:28;;;;;;;23.38;4.24;;;;;;;22.16;40.94;100662.52;462638;114;922565;-75
2022/08/22 02:58:49;;;;;;;31.48;4.06;;;;;;;22.16;41.00;100653.36;462579;114;922686;-75
2022/08/22 03:00:03;;;;;;;19.85;3.99;;;;;;;22.15;40.94;100655.30;462609;114;922801;-75
2022/08/22 03:01:15;;;;;;;18.98;4.58;;;;;;;22.14;41.02;100650.86;462626;114;922640;-75
2022/08/22 03:02:28;;;;;;;15.36;3.87;;;;;;;22.13;40.95;100656.69;462631;114;922910;-75
2022/08/22 03:03:35;;;;;;;26.78;4.74;;;;;;;22.12;40.99;100658.64;462584;114;923009;-75
2022/08/22 03:04:47;;;;;;;28.80;4.61;;;;;;;22.12;40.92;100661.42;462431;114;922692;-75
2022/08/22 03:06:04;;;;;;;23.51;3.60;;;;;;;22.13;40.90;100673.36;462487;114;922590;-75
2022/08/22 03:07:22;;;;;;;18.96;5.21;;;;;;;22.11;40.88;100667.28;462526;114;923035;-76
2022/08/22 03:08:29;;;;;;;14.33;3.53;;;;;;;22.12;40.82;100671.70;462487;114;922590;-76
2022/08/22 03:09:36;;;;;;;19.36;3.33;;;;;;;22.11;40.77;100670.86;462527;114;922989;-76
2022/08/22 03:10:55;;;;;;;17.27;3.48;;;;;;;22.10;40.74;100674.78;462484;114;922970;-75
2022/08/22 03:12:24;;;;;;;19.37;4.09;;;;;;;22.10;40.74;100673.95;462510;114;922612;-74
2022/08/22 03:14:04;;;;;;;19.96;3.94;;;;;;;22.11;40.72;100664.51;462501;114;922911;-75
2022/08/22 03:15:20;;;;;;;27.04;4.49;;;;;;;22.09;40.72;100675.89;460715;114;922489;-74
2022/08/22 03:16:30;;;;;;;14.30;4.10;;;;;;;22.07;40.70;100677.28;454464;116;923054;-74
2022/08/22 03:17:37;;;;;;;15.84;4.56;;;;;;;22.05;40.69;100667.30;454422;116;922692;-75
2022/08/22 03:18:49;;;;;;;18.83;3.67;;;;;;;22.05;40.70;100672.05;453567;116;923482;-75
2022/08/22 03:20:03;;;;;;;19.12;3.34;;;;;;;22.05;40.68;100672.84;448315;116;923364;-75
2022/08/22 03:21:34;;;;;;;16.31;3.96;;;;;;;22.05;40.74;100672.05;454412;116;922847;-75
2022/08/22 03:22:53;;;;;;;19.71;3.71;;;;;;;22.05;40.77;100664.52;441758;120;923621;-75
2022/08/22 03:24:15;;;;;;;13.98;4.02;;;;;;;22.05;40.77;100664.52;441610;120;922710;-75
2022/08/22 03:25:38;;;;;;;13.24;3.74;;;;;;;22.16;40.77;100676.41;482423;110;947295;-74
2022/08/22 03:26:54;;;;;;;14.51;3.87;;;;;;;22.04;40.76;100668.44;473694;112;922498;-75
2022/08/22 03:28:00;;;;;;;18.78;3.90;;;;;;;22.04;40.77;100671.21;473751;112;923173;-75
2022/08/22 03:29:07;;;;;;;15.53;3.40;;;;;;;22.03;40.78;100672.33;473797;112;922570;-75
2022/08/22 03:30:20;;;;;;;16.08;3.46;;;;;;;22.04;40.77;100676.77;467353;112;922571;-74
2022/08/22 03:31:24;;;;;;;17.28;3.33;;;;;;;22.04;40.85;100671.21;464961;112;923024;-75
2022/08/22 03:32:47;;;;;;;16.69;3.32;;;;;;;22.05;40.80;100677.59;465572;114;923408;-73
2022/08/22 03:34:19;;;;;;;13.33;3.51;;;;;;;22.04;40.75;100671.21;465371;113;922980;-76
2022/08/22 03:35:25;;;;;;;14.14;4.11;;;;;;;22.05;40.83;100677.59;465359;114;922781;-74
2022/08/22 03:36:30;;;;;;;19.32;3.13;;;;;;;22.04;40.81;100676.77;465194;114;922970;-75
2022/08/22 03:37:40;;;;;;;14.92;4.11;;;;;;;22.04;40.86;100673.16;465466;114;922479;-77
2022/08/22 03:39:10;;;;;;;13.83;3.06;;;;;;;22.04;40.85;100668.44;465342;113;930777;-75
2022/08/22 03:40:47;;;;;;;17.70;3.41;;;;;;;22.04;40.85;100673.98;465243;114;922570;-75
2022/08/22 03:42:01;;;;;;;21.31;3.93;;;;;;;22.05;40.89;100681.17;465686;114;923087;-74
2022/08/22 03:43:10;;;;;;;21.03;3.77;;;;;;;22.04;40.89;100671.21;465524;114;922189;-75
2022/08/22 03:44:29;;;;;;;11.47;3.41;;;;;;;22.05;40.87;100680.38;465981;113;923146;-75
2022/08/22 03:45:51;;;;;;;13.02;3.20;;;;;;;22.04;40.87;100685.09;465909;114;922620;-75
2022/08/22 03:47:20;;;;;;;17.74;3.16;;;;;;;22.04;40.88;100676.77;466080;114;922494;-74
2022/08/22 03:48:57;;;;;;;14.16;3.08;;;;;;;22.04;40.90;100679.55;466114;114;922207;-75
2022/08/22 03:50:23;;;;;;;18.77;3.03;;;;;;;22.05;40.86;100686.73;466092;114;922636;-75
2022/08/22 03:51:30;;;;;;;20.38;3.72;;;;;;;22.04;40.93;100679.55;466045;114;922517;-75
2022/08/22 03:54:10;;;;;;;11.38;3.32;;;;;;;22.03;40.92;100680.66;465267;114;922963;-74
2022/08/22 03:55:23;;;;;;;17.88;3.34;;;;;;;22.03;40.94;100680.66;465226;114;923053;-75
2022/08/22 03:56:48;;;;;;;12.58;2.89;;;;;;;22.04;40.94;100681.48;464063;114;922668;-74
2022/08/22 03:58:00;;;;;;;18.17;3.49;;;;;;;22.04;40.86;100681.48;464940;114;922498;-74
2022/08/22 03:59:41;;;;;;;11.41;3.03;;;;;;;22.04;40.87;100681.48;462283;114;922779;-75
2022/08/22 04:01:07;;;;;;;20.19;3.28;;;;;;;22.04;40.85;100675.94;465297;114;923119;-76
2022/08/22 04:02:20;;;;;;;9.43;2.89;;;;;;;22.04;40.90;100687.87;465164;114;922755;-76
2022/08/22 04:03:56;;;;;;;23.28;3.06;;;;;;;22.04;40.88;100685.09;461846;114;923021;-74
2022/08/22 04:05:25;;;;;;;18.29;2.94;;;;;;;22.03;40.88;100680.66;465210;114;922908;-75
2022/08/22 04:06:49;;;;;;;15.49;3.00;;;;;;;22.03;40.94;100680.66;465358;114;923077;-75
2022/08/22 04:08:14;;;;;;;16.67;3.46;;;;;;;22.02;40.96;100681.77;464671;114;922588;-75
2022/08/22 04:09:42;;;;;;;12.49;2.93;;;;;;;22.03;40.95;100675.10;465313;114;922707;-75
2022/08/22 04:11:17;;;;;;;9.99;2.71;;;;;;;22.03;40.98;100682.60;465336;114;922692;-75
2022/08/22 04:12:29;;;;;;;14.30;2.82;;;;;;;22.03;40.99;100685.38;465323;114;923106;-75
2022/08/22 04:14:05;;;;;;;8.48;2.46;;;;;;;22.04;41.00;100684.27;465292;114;922679;-75
2022/08/22 04:15:30;;;;;;;14.51;2.96;;;;;;;22.02;40.99;100684.55;455914;116;922570;-74
2022/08/22 04:16:56;;;;;;;12.22;2.70;;;;;;;22.03;40.99;100686.20;467840;113;922616;-74
2022/08/22 04:18:23;;;;;;;7.96;2.34;;;;;;;22.04;40.98;100685.09;467861;113;922515;-76
2022/08/22 04:19:47;;;;;;;9.22;2.59;;;;;;;22.04;40.98;100687.87;452352;116;923485;-76
2022/08/22 04:21:08;;;;;;;12.35;2.63;;;;;;;22.07;41.02;100680.06;452369;116;922721;-75
2022/08/22 04:22:37;;;;;;;10.27;2.46;;;;;;;22.07;40.96;100680.89;452338;117;922847;-75
2022/08/22 04:24:16;;;;;;;13.49;3.64;;;;;;;22.07;40.95;100680.06;452361;117;923618;-74
2022/08/22 04:25:24;;;;;;;8.16;1.99;;;;;;;22.07;40.93;100683.67;458414;113;923135;-75
2022/08/22 04:26:40;;;;;;;7.12;2.66;;;;;;;22.09;40.93;100681.45;467715;112;922600;-76
2022/08/22 04:27:54;;;;;;;9.19;2.17;;;;;;;22.10;40.93;100688.67;467609;113;922611;-74
2022/08/22 04:29:19;;;;;;;11.97;2.32;;;;;;;22.11;40.93;100683.95;467869;113;922908;-75
2022/08/22 04:30:35;;;;;;;8.25;2.02;;;;;;;22.13;40.95;100687.24;465470;113;922621;-76
2022/08/22 04:31:48;;;;;;;18.31;2.58;;;;;;;22.14;40.89;100686.96;473738;112;922544;-76
2022/08/22 04:32:58;;;;;;;11.88;2.04;;;;;;;22.16;40.90;100681.13;473729;112;922571;-75
2022/08/22 04:34:06;;;;;;;;;;;;;;;22.17;40.89;100683.59;473669;112;922518;-75
2022/08/22 04:35:38;;;;;;;9.81;1.95;;;;;;;22.18;40.83;100681.65;465278;114;922677;-75
2022/08/22 04:36:57;;;;;;;16.29;2.33;;;;;;;22.18;40.79;100685.26;465289;114;923089;-75
2022/08/22 04:38:12;;;;;;;7.55;2.24;;;;;;;22.17;40.86;100668.88;465253;114;922646;-75
2022/08/22 04:39:22;;;;;;;12.63;2.16;;;;;;;22.19;40.91;100672.20;465226;114;922560;-75
2022/08/22 04:40:41;;;;;;;13.46;2.26;;;;;;;22.20;40.94;100677.48;465225;114;923221;-76
2022/08/22 04:41:50;;;;;;;12.34;2.46;;;;;;;22.22;40.85;100677.20;465066;114;922794;-74
2022/08/22 04:42:57;;;;;;;11.53;2.37;;;;;;;22.24;40.88;100680.50;465254;114;922541;-75
2022/08/22 04:44:07;;;;;;;9.99;2.31;;;;;;;22.25;40.84;100673.83;465234;114;922567;-76
2022/08/22 04:45:28;;;;;;;8.85;2.55;;;;;;;22.27;40.80;100682.70;465182;114;922541;-75
2022/08/22 04:46:44;;;;;;;8.54;2.35;;;;;;;22.29;40.79;100686.01;465201;114;922584;-75
2022/08/22 04:47:57;;;;;;;7.36;2.01;;;;;;;22.31;40.82;100672.67;465150;114;922688;-76
2022/08/22 04:49:21;;;;;;;12.90;2.62;;;;;;;22.32;40.85;100683.50;465169;114;922717;-75
2022/08/22 04:50:33;;;;;;;9.47;2.18;;;;;;;22.33;40.84;100687.08;465266;114;922840;-75
2022/08/22 04:51:44;;;;;;;7.59;2.25;;;;;;;22.35;40.81;100676.52;465231;114;922587;-74
2022/08/22 04:53:09;;;;;;;8.42;2.14;;;;;;;22.35;40.73;100674.57;464853;114;922573;-74
2022/08/22 04:54:44;;;;;;;7.76;1.94;;;;;;;22.36;40.65;100681.79;464848;114;931584;-74
2022/08/22 04:56:00;;;;;;;10.24;2.17;;;;;;;22.38;40.70;100673.17;465211;114;923128;-75
2022/08/22 04:57:28;;;;;;;8.57;2.02;;;;;;;22.39;40.67;100683.14;464590;114;922527;-76
2022/08/22 04:58:52;;;;;;;16.48;2.54;;;;;;;22.41;40.64;100683.69;460638;114;922564;-76
2022/08/22 05:00:00;;;;;;;10.14;2.17;;;;;;;22.42;40.68;100682.58;465058;114;923273;-74
2022/08/22 05:01:07;;;;;;;15.61;2.57;;;;;;;22.42;40.71;100685.36;464713;114;922617;-75
2022/08/22 05:02:13;;;;;;;11.14;2.99;;;;;;;22.43;40.70;100682.30;465159;114;923020;-75
2022/08/22 05:03:19;;;;;;;7.26;2.19;;;;;;;22.44;40.76;100685.88;464480;114;922389;-75
2022/08/22 05:04:29;;;;;;;8.33;2.36;;;;;;;22.47;40.72;100682.53;465221;114;922650;-75
2022/08/22 05:05:35;;;;;;;5.14;2.12;;;;;;;22.48;40.71;100678.64;465257;114;922706;-75
2022/08/22 05:06:42;;;;;;;5.98;2.26;;;;;;;22.50;40.70;100681.94;465292;114;922707;-74
2022/08/22 05:07:49;;;;;;;5.20;1.83;;;;;;;22.52;40.78;100682.48;465228;114;922572;-75
2022/08/22 05:08:54;;;;;;;12.24;2.84;;;;;;;22.54;40.68;100680.25;465231;114;922598;-75
2022/08/22 05:10:01;;;;;;;12.58;2.48;;;;;;;22.56;40.59;100677.99;465234;114;922698;-75
2022/08/22 05:11:08;;;;;;;8.44;2.02;;;;;;;22.58;40.58;100695.22;465385;113;922617;-74
2022/08/22 05:12:15;;;;;;;9.14;2.16;;;;;;;22.61;40.53;100685.45;465265;114;923105;-75
2022/08/22 05:13:28;;;;;;;6.68;2.22;;;;;;;22.63;40.53;100689.61;465213;113;923083;-74
2022/08/22 05:14:40;;;;;;;9.47;2.53;;;;;;;22.66;40.50;100689.01;465211;114;922654;-74
2022/08/22 05:15:50;;;;;;;8.91;2.14;;;;;;;22.68;40.50;100685.95;465200;114;923125;-75
2022/08/22 05:16:56;;;;;;;6.99;2.03;;;;;;;22.70;40.35;100690.11;465203;114;923165;-74
2022/08/22 05:18:03;;;;;;;12.61;1.98;;;;;;;22.72;40.31;100693.44;465181;114;922935;-75
2022/08/22 05:19:18;;;;;;;11.52;2.16;;;;;;;22.74;40.22;100687.59;465130;114;922954;-75
2022/08/22 05:20:26;;;;;;;8.21;2.03;;;;;;;22.75;40.15;100681.75;456565;114;923154;-76
2022/08/22 05:21:33;;;;;;;5.89;2.21;;;;;;;22.78;40.16;100681.14;465224;114;922728;-75
2022/08/22 05:22:43;;;;;;;8.17;1.45;;;;;;;22.79;40.14;100693.93;465293;114;922959;-74
2022/08/22 05:23:52;;;;;;;6.70;2.02;;;;;;;22.82;40.17;100686.97;465251;114;923242;-75
2022/08/22 05:25:09;;;;;;;9.18;1.91;;;;;;;22.83;40.15;100688.59;460890;114;922905;-75
2022/08/22 05:26:14;;;;;;;11.97;1.81;;;;;;;22.84;40.08;100688.31;465214;113;923159;-75
2022/08/22 05:27:27;;;;;;;5.71;1.88;;;;;;;22.86;40.07;100688.86;465279;114;922591;-75
2022/08/22 05:28:41;;;;;;;6.68;2.22;;;;;;;22.88;40.09;100683.81;465040;114;924993;-75
2022/08/22 05:29:48;;;;;;;8.68;1.82;;;;;;;22.92;40.16;100688.81;465375;114;922546;-75
2022/08/22 05:30:53;;;;;;;7.63;1.72;;;;;;;22.93;40.18;100682.95;465548;114;922778;-75
2022/08/22 05:32:02;;;;;;;7.98;1.75;;;;;;;22.96;40.07;100684.30;455915;116;923786;-75
2022/08/22 05:33:18;;;;;;;6.68;2.02;;;;;;;22.96;39.96;100685.14;456782;114;930585;-75
2022/08/22 05:34:25;;;;;;;7.01;1.57;;;;;;;22.99;39.88;100676.19;465270;112;922664;-75
2022/08/22 05:35:37;;;;;;;4.27;1.26;;;;;;;23.00;39.72;100680.64;465325;114;922568;-75
2022/08/22 05:36:44;;;;;;;6.33;1.61;;;;;;;23.01;39.55;100682.30;458745;114;922559;-74
2022/08/22 05:37:52;;;;;;;10.99;2.17;;;;;;;23.04;39.45;100678.11;465293;114;923000;-75
2022/08/22 05:39:01;;;;;;;8.06;2.11;;;;;;;23.06;39.34;100670.28;465307;114;923090;-75
2022/08/22 05:40:07;;;;;;;8.73;1.96;;;;;;;23.07;39.29;100685.85;465200;114;922914;-75
2022/08/22 05:41:14;;;;;;;7.28;1.39;;;;;;;23.09;39.31;100675.27;465262;114;922673;-75
2022/08/22 05:42:24;;;;;;;6.23;1.77;;;;;;;23.11;39.24;100676.62;465260;114;922805;-75
2022/08/22 05:43:28;;;;;;;11.24;1.92;;;;;;;23.12;39.16;100675.50;464978;114;922685;-75
2022/08/22 05:44:34;;;;;;;4.06;1.40;;;;;;;23.15;38.86;100674.92;465462;114;922771;-74
2022/08/22 05:45:40;;;;;;;4.96;1.55;;;;;;;23.16;38.74;100676.55;465249;114;922571;-74
2022/08/22 05:46:48;;;;;;;5.07;1.69;;;;;;;23.17;38.59;100681.00;465094;114;922689;-73
2022/08/22 05:48:04;;;;;;;9.77;1.63;;;;;;;23.20;38.55;100679.59;465180;114;922577;-74
2022/08/22 05:49:13;;;;;;;7.51;1.48;;;;;;;23.21;38.51;100679.27;465058;114;922616;-73
2022/08/22 05:50:25;;;;;;;4.31;1.08;;;;;;;23.24;38.56;100672.30;465218;114;922570;-72
2022/08/22 05:52:03;;;;;;;7.02;1.35;;;;;;;23.26;38.53;100686.76;464620;114;922520;-76
2022/08/22 05:53:13;;;;;;;4.79;1.27;;;;;;;23.28;38.54;100679.75;465146;114;922592;-76